Terminal Aerodrome Forecast
Issued by NWS

Home | Current Version | Previous Version | Graphics & Text | Print | Product List | Glossary On
Versions: 1 2 3 4 5 6 7 8 9 10 11 12 13 14 15 16 17 18 19 20
000
FTUS43 KOAX 031133
TAFCDR
TAF
KCDR 031133Z 0312/0412 02020G30KT 3SM -SN SCT008 OVC016
      TEMPO 0312/0315 1SM -SN BR BKN008
     FM031500 35012KT 2SM -SN SCT010 BKN018
     FM031900 35015G25KT 5SM -SHSN SCT018 BKN030
     FM040100 32007KT P6SM SCT060=

USA.gov is the U.S. government's official web portal to all federal, state and local government web resources and services.